sensor_id;sensor_type;location;lat;lon;timestamp;temperature;humidity
78876;DHT22;68253;52.506;5.486;2024-03-22T00:01:51;10.80;75.40
78876;DHT22;68253;52.506;5.486;2024-03-22T00:04:18;10.80;75.40
78876;DHT22;68253;52.506;5.486;2024-03-22T00:06:45;10.80;75.50
78876;DHT22;68253;52.506;5.486;2024-03-22T00:09:12;10.80;75.60
78876;DHT22;68253;52.506;5.486;2024-03-22T00:11:42;10.80;75.60
78876;DHT22;68253;52.506;5.486;2024-03-22T00:14:09;10.80;75.70
78876;DHT22;68253;52.506;5.486;2024-03-22T00:16:36;10.80;75.70
78876;DHT22;68253;52.506;5.486;2024-03-22T00:19:03;10.80;75.80
78876;DHT22;68253;52.506;5.486;2024-03-22T00:21:29;10.90;75.90
78876;DHT22;68253;52.506;5.486;2024-03-22T00:23:58;10.90;75.90
78876;DHT22;68253;52.506;5.486;2024-03-22T00:26:25;10.80;76.00
78876;DHT22;68253;52.506;5.486;2024-03-22T00:28:51;10.80;76.00
78876;DHT22;68253;52.506;5.486;2024-03-22T00:31:17;10.80;76.20
78876;DHT22;68253;52.506;5.486;2024-03-22T00:33:43;10.80;76.20
78876;DHT22;68253;52.506;5.486;2024-03-22T00:36:09;10.80;76.30
78876;DHT22;68253;52.506;5.486;2024-03-22T00:38:36;10.80;76.30
78876;DHT22;68253;52.506;5.486;2024-03-22T00:41:02;10.80;76.40
78876;DHT22;68253;52.506;5.486;2024-03-22T00:43:28;10.80;76.40
78876;DHT22;68253;52.506;5.486;2024-03-22T00:45:54;10.90;76.40
78876;DHT22;68253;52.506;5.486;2024-03-22T00:48:20;10.90;76.40
78876;DHT22;68253;52.506;5.486;2024-03-22T00:50:46;10.90;76.40
78876;DHT22;68253;52.506;5.486;2024-03-22T00:53:12;10.90;76.40
78876;DHT22;68253;52.506;5.486;2024-03-22T00:55:39;10.90;76.40
78876;DHT22;68253;52.506;5.486;2024-03-22T00:58:05;10.90;76.40
78876;DHT22;68253;52.506;5.486;2024-03-22T01:00:31;10.90;76.40
78876;DHT22;68253;52.506;5.486;2024-03-22T01:02:57;10.90;76.40
78876;DHT22;68253;52.506;5.486;2024-03-22T01:05:23;11.00;76.40
78876;DHT22;68253;52.506;5.486;2024-03-22T01:07:49;11.00;76.40
78876;DHT22;68253;52.506;5.486;2024-03-22T01:10:15;11.00;76.50
78876;DHT22;68253;52.506;5.486;2024-03-22T01:12:41;11.00;76.40
78876;DHT22;68253;52.506;5.486;2024-03-22T01:15:08;11.00;76.40
78876;DHT22;68253;52.506;5.486;2024-03-22T01:17:35;11.00;76.50
78876;DHT22;68253;52.506;5.486;2024-03-22T01:20:01;11.00;76.50
78876;DHT22;68253;52.506;5.486;2024-03-22T01:22:28;11.00;76.50
78876;DHT22;68253;52.506;5.486;2024-03-22T01:24:54;11.00;76.50
78876;DHT22;68253;52.506;5.486;2024-03-22T01:27:20;11.00;76.50
78876;DHT22;68253;52.506;5.486;2024-03-22T01:29:47;11.00;76.50
78876;DHT22;68253;52.506;5.486;2024-03-22T01:32:13;11.00;76.50
78876;DHT22;68253;52.506;5.486;2024-03-22T01:34:39;10.90;76.40
78876;DHT22;68253;52.506;5.486;2024-03-22T01:37:05;10.90;76.50
78876;DHT22;68253;52.506;5.486;2024-03-22T01:39:32;10.90;76.50
78876;DHT22;68253;52.506;5.486;2024-03-22T01:41:58;10.90;76.60
78876;DHT22;68253;52.506;5.486;2024-03-22T01:44:28;10.90;76.50
78876;DHT22;68253;52.506;5.486;2024-03-22T01:46:54;10.90;76.60
78876;DHT22;68253;52.506;5.486;2024-03-22T01:49:21;10.80;76.70
78876;DHT22;68253;52.506;5.486;2024-03-22T01:51:47;10.80;76.70
78876;DHT22;68253;52.506;5.486;2024-03-22T01:54:16;10.80;76.70
78876;DHT22;68253;52.506;5.486;2024-03-22T01:56:42;10.80;76.70
78876;DHT22;68253;52.506;5.486;2024-03-22T01:59:08;10.80;76.70
78876;DHT22;68253;52.506;5.486;2024-03-22T02:01:35;10.80;76.70
78876;DHT22;68253;52.506;5.486;2024-03-22T02:04:02;10.80;76.70
78876;DHT22;68253;52.506;5.486;2024-03-22T02:06:28;10.80;76.60
78876;DHT22;68253;52.506;5.486;2024-03-22T02:08:56;10.80;76.60
78876;DHT22;68253;52.506;5.486;2024-03-22T02:11:22;10.80;76.60
78876;DHT22;68253;52.506;5.486;2024-03-22T02:13:48;10.80;76.50
78876;DHT22;68253;52.506;5.486;2024-03-22T02:16:15;10.80;76.40
78876;DHT22;68253;52.506;5.486;2024-03-22T02:18:41;10.80;76.30
78876;DHT22;68253;52.506;5.486;2024-03-22T02:21:07;10.80;76.30
78876;DHT22;68253;52.506;5.486;2024-03-22T02:23:34;10.80;76.30
78876;DHT22;68253;52.506;5.486;2024-03-22T02:26:01;10.80;76.20
78876;DHT22;68253;52.506;5.486;2024-03-22T02:28:27;10.80;76.10
78876;DHT22;68253;52.506;5.486;2024-03-22T02:30:54;10.80;76.10
78876;DHT22;68253;52.506;5.486;2024-03-22T02:33:20;10.70;76.20
78876;DHT22;68253;52.506;5.486;2024-03-22T02:35:47;10.70;76.20
78876;DHT22;68253;52.506;5.486;2024-03-22T02:38:13;10.70;76.20
78876;DHT22;68253;52.506;5.486;2024-03-22T02:40:39;10.70;76.20
78876;DHT22;68253;52.506;5.486;2024-03-22T02:43:05;10.70;76.20
78876;DHT22;68253;52.506;5.486;2024-03-22T02:45:32;10.60;76.30
78876;DHT22;68253;52.506;5.486;2024-03-22T02:47:58;10.60;76.30
78876;DHT22;68253;52.506;5.486;2024-03-22T02:50:24;10.60;76.30
78876;DHT22;68253;52.506;5.486;2024-03-22T02:52:50;10.60;76.30
78876;DHT22;68253;52.506;5.486;2024-03-22T02:55:17;10.60;76.40
78876;DHT22;68253;52.506;5.486;2024-03-22T02:57:43;10.60;76.40
78876;DHT22;68253;52.506;5.486;2024-03-22T03:00:09;10.60;76.50
78876;DHT22;68253;52.506;5.486;2024-03-22T03:02:36;10.60;76.50
78876;DHT22;68253;52.506;5.486;2024-03-22T03:05:02;10.60;76.50
78876;DHT22;68253;52.506;5.486;2024-03-22T03:07:29;10.60;76.50
78876;DHT22;68253;52.506;5.486;2024-03-22T03:09:55;10.60;76.50
78876;DHT22;68253;52.506;5.486;2024-03-22T03:12:21;10.60;76.50
78876;DHT22;68253;52.506;5.486;2024-03-22T03:14:47;10.50;76.40
78876;DHT22;68253;52.506;5.486;2024-03-22T03:17:13;10.50;76.50
78876;DHT22;68253;52.506;5.486;2024-03-22T03:19:39;10.50;76.50
78876;DHT22;68253;52.506;5.486;2024-03-22T03:22:05;10.50;76.50
78876;DHT22;68253;52.506;5.486;2024-03-22T03:24:32;10.50;76.50
78876;DHT22;68253;52.506;5.486;2024-03-22T03:26:58;10.50;76.50
78876;DHT22;68253;52.506;5.486;2024-03-22T03:29:24;10.50;76.50
78876;DHT22;68253;52.506;5.486;2024-03-22T03:31:50;10.40;76.50
78876;DHT22;68253;52.506;5.486;2024-03-22T03:34:16;10.40;76.50
78876;DHT22;68253;52.506;5.486;2024-03-22T03:36:42;10.40;76.50
78876;DHT22;68253;52.506;5.486;2024-03-22T03:39:08;10.30;76.50
78876;DHT22;68253;52.506;5.486;2024-03-22T03:41:35;10.30;76.60
78876;DHT22;68253;52.506;5.486;2024-03-22T03:44:01;10.30;76.70
78876;DHT22;68253;52.506;5.486;2024-03-22T03:46:27;10.30;76.70
78876;DHT22;68253;52.506;5.486;2024-03-22T03:48:53;10.20;76.70
78876;DHT22;68253;52.506;5.486;2024-03-22T03:51:20;10.20;76.80
78876;DHT22;68253;52.506;5.486;2024-03-22T03:53:46;10.20;76.80
78876;DHT22;68253;52.506;5.486;2024-03-22T03:56:12;10.20;76.80
78876;DHT22;68253;52.506;5.486;2024-03-22T03:58:38;10.20;76.90
78876;DHT22;68253;52.506;5.486;2024-03-22T04:01:10;10.20;76.80
78876;DHT22;68253;52.506;5.486;2024-03-22T04:03:36;10.20;76.70
78876;DHT22;68253;52.506;5.486;2024-03-22T04:06:02;10.20;76.70
78876;DHT22;68253;52.506;5.486;2024-03-22T04:08:29;10.20;76.80
78876;DHT22;68253;52.506;5.486;2024-03-22T04:10:56;10.20;76.90
78876;DHT22;68253;52.506;5.486;2024-03-22T04:13:24;10.20;76.90
78876;DHT22;68253;52.506;5.486;2024-03-22T04:15:50;10.20;76.90
78876;DHT22;68253;52.506;5.486;2024-03-22T04:18:16;10.10;76.80
78876;DHT22;68253;52.506;5.486;2024-03-22T04:20:43;10.10;76.90
78876;DHT22;68253;52.506;5.486;2024-03-22T04:23:12;10.10;76.90
78876;DHT22;68253;52.506;5.486;2024-03-22T04:25:38;10.10;76.90
78876;DHT22;68253;52.506;5.486;2024-03-22T04:28:04;10.10;77.00
78876;DHT22;68253;52.506;5.486;2024-03-22T04:30:30;10.10;76.80
78876;DHT22;68253;52.506;5.486;2024-03-22T04:32:56;10.10;76.80
78876;DHT22;68253;52.506;5.486;2024-03-22T04:35:22;10.20;76.80
78876;DHT22;68253;52.506;5.486;2024-03-22T04:37:48;10.20;76.70
78876;DHT22;68253;52.506;5.486;2024-03-22T04:40:15;10.20;76.70
78876;DHT22;68253;52.506;5.486;2024-03-22T04:42:41;10.20;76.70
78876;DHT22;68253;52.506;5.486;2024-03-22T04:45:07;10.20;76.70
78876;DHT22;68253;52.506;5.486;2024-03-22T04:47:33;10.20;76.70
78876;DHT22;68253;52.506;5.486;2024-03-22T04:49:59;10.20;76.60
78876;DHT22;68253;52.506;5.486;2024-03-22T04:52:25;10.20;76.60
78876;DHT22;68253;52.506;5.486;2024-03-22T04:54:51;10.20;76.50
78876;DHT22;68253;52.506;5.486;2024-03-22T04:57:18;10.20;76.40
78876;DHT22;68253;52.506;5.486;2024-03-22T04:59:44;10.20;76.40
78876;DHT22;68253;52.506;5.486;2024-03-22T05:02:10;10.20;76.50
78876;DHT22;68253;52.506;5.486;2024-03-22T05:04:36;10.20;76.40
78876;DHT22;68253;52.506;5.486;2024-03-22T05:07:03;10.10;76.50
78876;DHT22;68253;52.506;5.486;2024-03-22T05:09:29;10.10;76.50
78876;DHT22;68253;52.506;5.486;2024-03-22T05:11:58;10.10;76.40
78876;DHT22;68253;52.506;5.486;2024-03-22T05:14:24;10.10;76.50
78876;DHT22;68253;52.506;5.486;2024-03-22T05:16:50;10.10;76.40
78876;DHT22;68253;52.506;5.486;2024-03-22T05:19:16;10.10;76.50
78876;DHT22;68253;52.506;5.486;2024-03-22T05:21:42;10.10;76.60
78876;DHT22;68253;52.506;5.486;2024-03-22T05:24:08;10.10;76.70
78876;DHT22;68253;52.506;5.486;2024-03-22T05:26:34;10.00;76.70
78876;DHT22;68253;52.506;5.486;2024-03-22T05:29:02;10.00;76.70
78876;DHT22;68253;52.506;5.486;2024-03-22T05:31:29;10.00;76.80
78876;DHT22;68253;52.506;5.486;2024-03-22T05:33:55;10.00;76.80
78876;DHT22;68253;52.506;5.486;2024-03-22T05:36:21;10.00;76.70
78876;DHT22;68253;52.506;5.486;2024-03-22T05:38:47;10.00;76.70
78876;DHT22;68253;52.506;5.486;2024-03-22T05:41:13;10.00;76.70
78876;DHT22;68253;52.506;5.486;2024-03-22T05:43:39;10.00;76.60
78876;DHT22;68253;52.506;5.486;2024-03-22T05:46:05;10.00;76.50
78876;DHT22;68253;52.506;5.486;2024-03-22T05:48:31;10.00;76.50
78876;DHT22;68253;52.506;5.486;2024-03-22T05:50:57;10.00;76.40
78876;DHT22;68253;52.506;5.486;2024-03-22T05:53:24;10.00;76.50
78876;DHT22;68253;52.506;5.486;2024-03-22T05:55:50;10.00;76.40
78876;DHT22;68253;52.506;5.486;2024-03-22T05:58:16;10.00;76.40
78876;DHT22;68253;52.506;5.486;2024-03-22T06:00:42;10.00;76.40
78876;DHT22;68253;52.506;5.486;2024-03-22T06:03:08;10.00;76.50
78876;DHT22;68253;52.506;5.486;2024-03-22T06:05:34;10.00;76.30
78876;DHT22;68253;52.506;5.486;2024-03-22T06:08:01;10.00;76.30
78876;DHT22;68253;52.506;5.486;2024-03-22T06:10:27;10.00;76.10
78876;DHT22;68253;52.506;5.486;2024-03-22T06:12:53;10.00;76.00
78876;DHT22;68253;52.506;5.486;2024-03-22T06:15:19;10.10;75.90
78876;DHT22;68253;52.506;5.486;2024-03-22T06:17:47;10.10;75.90
78876;DHT22;68253;52.506;5.486;2024-03-22T06:20:14;10.10;75.90
78876;DHT22;68253;52.506;5.486;2024-03-22T06:22:40;10.10;75.70
78876;DHT22;68253;52.506;5.486;2024-03-22T06:25:06;10.10;75.60
78876;DHT22;68253;52.506;5.486;2024-03-22T06:27:32;10.10;75.50
78876;DHT22;68253;52.506;5.486;2024-03-22T06:29:58;10.20;75.40
78876;DHT22;68253;52.506;5.486;2024-03-22T06:32:24;10.20;75.40
78876;DHT22;68253;52.506;5.486;2024-03-22T06:34:50;10.20;75.30
78876;DHT22;68253;52.506;5.486;2024-03-22T06:37:16;10.20;75.10
78876;DHT22;68253;52.506;5.486;2024-03-22T06:39:43;10.30;75.00
78876;DHT22;68253;52.506;5.486;2024-03-22T06:42:09;10.30;74.80
78876;DHT22;68253;52.506;5.486;2024-03-22T06:44:35;10.30;74.70
78876;DHT22;68253;52.506;5.486;2024-03-22T06:47:01;10.40;74.60
78876;DHT22;68253;52.506;5.486;2024-03-22T06:49:28;10.40;74.50
78876;DHT22;68253;52.506;5.486;2024-03-22T06:51:54;10.40;74.60
78876;DHT22;68253;52.506;5.486;2024-03-22T06:54:20;10.40;74.30
78876;DHT22;68253;52.506;5.486;2024-03-22T06:56:46;10.50;74.20
78876;DHT22;68253;52.506;5.486;2024-03-22T06:59:12;10.50;74.00
78876;DHT22;68253;52.506;5.486;2024-03-22T07:01:39;10.50;73.80
78876;DHT22;68253;52.506;5.486;2024-03-22T07:04:05;10.50;73.70
78876;DHT22;68253;52.506;5.486;2024-03-22T07:06:31;10.50;73.70
78876;DHT22;68253;52.506;5.486;2024-03-22T07:08:57;10.60;73.50
78876;DHT22;68253;52.506;5.486;2024-03-22T07:11:24;10.60;73.50
78876;DHT22;68253;52.506;5.486;2024-03-22T07:13:50;10.60;73.30
78876;DHT22;68253;52.506;5.486;2024-03-22T07:16:16;10.60;73.30
78876;DHT22;68253;52.506;5.486;2024-03-22T07:18:42;10.60;73.30
78876;DHT22;68253;52.506;5.486;2024-03-22T07:21:08;10.60;73.40
78876;DHT22;68253;52.506;5.486;2024-03-22T07:23:34;10.60;73.30
78876;DHT22;68253;52.506;5.486;2024-03-22T07:26:00;10.60;73.00
78876;DHT22;68253;52.506;5.486;2024-03-22T07:28:26;10.70;73.00
78876;DHT22;68253;52.506;5.486;2024-03-22T07:30:52;10.60;73.00
78876;DHT22;68253;52.506;5.486;2024-03-22T07:33:21;10.70;73.00
78876;DHT22;68253;52.506;5.486;2024-03-22T07:35:47;10.60;73.10
78876;DHT22;68253;52.506;5.486;2024-03-22T07:38:13;10.60;73.10
78876;DHT22;68253;52.506;5.486;2024-03-22T07:40:40;10.60;73.20
78876;DHT22;68253;52.506;5.486;2024-03-22T07:43:06;10.70;73.30
78876;DHT22;68253;52.506;5.486;2024-03-22T07:45:35;10.70;73.30
78876;DHT22;68253;52.506;5.486;2024-03-22T07:48:01;10.70;73.30
78876;DHT22;68253;52.506;5.486;2024-03-22T07:50:27;10.70;73.20
78876;DHT22;68253;52.506;5.486;2024-03-22T07:52:54;10.70;73.20
78876;DHT22;68253;52.506;5.486;2024-03-22T07:55:20;10.70;73.30
78876;DHT22;68253;52.506;5.486;2024-03-22T07:57:46;10.70;73.30
78876;DHT22;68253;52.506;5.486;2024-03-22T08:00:12;10.70;73.40
78876;DHT22;68253;52.506;5.486;2024-03-22T08:02:38;10.70;73.40
78876;DHT22;68253;52.506;5.486;2024-03-22T08:05:06;10.60;73.50
78876;DHT22;68253;52.506;5.486;2024-03-22T08:07:32;10.60;73.70
78876;DHT22;68253;52.506;5.486;2024-03-22T08:09:58;10.60;74.10
78876;DHT22;68253;52.506;5.486;2024-03-22T08:12:25;10.50;74.50
78876;DHT22;68253;52.506;5.486;2024-03-22T08:14:51;10.50;74.70
78876;DHT22;68253;52.506;5.486;2024-03-22T08:17:18;10.50;75.00
78876;DHT22;68253;52.506;5.486;2024-03-22T08:19:44;10.40;75.30
78876;DHT22;68253;52.506;5.486;2024-03-22T08:22:10;10.40;75.50
78876;DHT22;68253;52.506;5.486;2024-03-22T08:24:37;10.30;75.80
78876;DHT22;68253;52.506;5.486;2024-03-22T08:27:03;10.40;76.10
78876;DHT22;68253;52.506;5.486;2024-03-22T08:29:29;10.30;76.20
78876;DHT22;68253;52.506;5.486;2024-03-22T08:31:55;10.20;76.60
78876;DHT22;68253;52.506;5.486;2024-03-22T08:34:22;10.20;76.90
78876;DHT22;68253;52.506;5.486;2024-03-22T08:36:48;10.10;77.20
78876;DHT22;68253;52.506;5.486;2024-03-22T08:39:14;10.10;77.50
78876;DHT22;68253;52.506;5.486;2024-03-22T08:41:41;10.10;77.60
78876;DHT22;68253;52.506;5.486;2024-03-22T08:44:07;10.00;77.80
78876;DHT22;68253;52.506;5.486;2024-03-22T08:46:33;10.00;77.90
78876;DHT22;68253;52.506;5.486;2024-03-22T08:48:59;10.00;78.10
78876;DHT22;68253;52.506;5.486;2024-03-22T08:51:25;10.00;78.20
78876;DHT22;68253;52.506;5.486;2024-03-22T08:53:52;10.00;78.30
78876;DHT22;68253;52.506;5.486;2024-03-22T08:56:18;10.00;78.20
78876;DHT22;68253;52.506;5.486;2024-03-22T08:58:44;10.00;78.40
78876;DHT22;68253;52.506;5.486;2024-03-22T09:01:10;9.90;78.30
78876;DHT22;68253;52.506;5.486;2024-03-22T09:03:37;10.00;78.40
78876;DHT22;68253;52.506;5.486;2024-03-22T09:06:03;10.00;78.40
78876;DHT22;68253;52.506;5.486;2024-03-22T09:08:29;10.00;78.30
78876;DHT22;68253;52.506;5.486;2024-03-22T09:10:56;10.00;78.40
78876;DHT22;68253;52.506;5.486;2024-03-22T09:13:22;10.00;78.40
78876;DHT22;68253;52.506;5.486;2024-03-22T09:15:55;10.00;78.50
78876;DHT22;68253;52.506;5.486;2024-03-22T09:18:21;10.00;78.70
78876;DHT22;68253;52.506;5.486;2024-03-22T09:20:47;10.00;78.60
78876;DHT22;68253;52.506;5.486;2024-03-22T09:23:14;10.00;78.60
78876;DHT22;68253;52.506;5.486;2024-03-22T09:25:40;10.00;78.70
78876;DHT22;68253;52.506;5.486;2024-03-22T09:28:06;10.00;78.70
78876;DHT22;68253;52.506;5.486;2024-03-22T09:30:32;10.00;78.80
78876;DHT22;68253;52.506;5.486;2024-03-22T09:32:58;10.00;78.80
78876;DHT22;68253;52.506;5.486;2024-03-22T09:35:24;10.00;78.80
78876;DHT22;68253;52.506;5.486;2024-03-22T09:37:50;10.00;79.00
78876;DHT22;68253;52.506;5.486;2024-03-22T09:40:17;10.00;79.10
78876;DHT22;68253;52.506;5.486;2024-03-22T09:42:43;10.00;79.30
78876;DHT22;68253;52.506;5.486;2024-03-22T09:45:11;10.00;79.40
78876;DHT22;68253;52.506;5.486;2024-03-22T09:47:38;10.00;79.40
78876;DHT22;68253;52.506;5.486;2024-03-22T09:50:07;10.00;79.50
78876;DHT22;68253;52.506;5.486;2024-03-22T09:52:35;10.00;79.70
78876;DHT22;68253;52.506;5.486;2024-03-22T09:55:05;10.10;79.70
78876;DHT22;68253;52.506;5.486;2024-03-22T09:57:31;10.10;79.70
78876;DHT22;68253;52.506;5.486;2024-03-22T09:59:59;10.10;79.40
78876;DHT22;68253;52.506;5.486;2024-03-22T10:02:26;10.10;79.50
78876;DHT22;68253;52.506;5.486;2024-03-22T10:04:52;10.20;79.50
78876;DHT22;68253;52.506;5.486;2024-03-22T10:07:18;10.20;79.40
78876;DHT22;68253;52.506;5.486;2024-03-22T10:09:45;10.20;79.30
78876;DHT22;68253;52.506;5.486;2024-03-22T10:12:12;10.20;79.40
78876;DHT22;68253;52.506;5.486;2024-03-22T10:14:38;10.20;79.50
78876;DHT22;68253;52.506;5.486;2024-03-22T10:17:08;10.20;79.60
78876;DHT22;68253;52.506;5.486;2024-03-22T10:19:34;10.30;79.30
78876;DHT22;68253;52.506;5.486;2024-03-22T10:22:03;10.20;79.30
78876;DHT22;68253;52.506;5.486;2024-03-22T10:24:30;10.30;79.50
78876;DHT22;68253;52.506;5.486;2024-03-22T10:26:56;10.30;79.50
78876;DHT22;68253;52.506;5.486;2024-03-22T10:29:22;10.30;79.50
78876;DHT22;68253;52.506;5.486;2024-03-22T10:31:53;10.30;79.60
78876;DHT22;68253;52.506;5.486;2024-03-22T10:34:21;10.30;79.50
78876;DHT22;68253;52.506;5.486;2024-03-22T10:36:49;10.30;79.40
78876;DHT22;68253;52.506;5.486;2024-03-22T10:39:19;10.30;79.50
78876;DHT22;68253;52.506;5.486;2024-03-22T10:41:46;10.30;79.60
78876;DHT22;68253;52.506;5.486;2024-03-22T10:44:12;10.30;79.60
78876;DHT22;68253;52.506;5.486;2024-03-22T10:46:45;10.30;79.30
78876;DHT22;68253;52.506;5.486;2024-03-22T10:49:16;10.30;79.20
78876;DHT22;68253;52.506;5.486;2024-03-22T10:51:45;10.30;79.30
78876;DHT22;68253;52.506;5.486;2024-03-22T10:54:17;10.30;79.50
78876;DHT22;68253;52.506;5.486;2024-03-22T10:56:46;10.30;79.50
78876;DHT22;68253;52.506;5.486;2024-03-22T10:59:19;10.20;79.60
78876;DHT22;68253;52.506;5.486;2024-03-22T11:01:46;10.20;79.60
78876;DHT22;68253;52.506;5.486;2024-03-22T11:04:12;10.20;79.80
78876;DHT22;68253;52.506;5.486;2024-03-22T11:06:38;10.30;79.70
78876;DHT22;68253;52.506;5.486;2024-03-22T11:09:05;10.30;79.60
78876;DHT22;68253;52.506;5.486;2024-03-22T11:11:32;10.20;79.70
78876;DHT22;68253;52.506;5.486;2024-03-22T11:14:03;10.20;79.70
78876;DHT22;68253;52.506;5.486;2024-03-22T11:16:30;10.20;79.80
78876;DHT22;68253;52.506;5.486;2024-03-22T11:18:56;10.30;79.80
78876;DHT22;68253;52.506;5.486;2024-03-22T11:21:22;10.30;79.80
78876;DHT22;68253;52.506;5.486;2024-03-22T11:23:49;10.30;79.80
78876;DHT22;68253;52.506;5.486;2024-03-22T11:26:15;10.30;79.80
78876;DHT22;68253;52.506;5.486;2024-03-22T11:28:42;10.30;79.90
78876;DHT22;68253;52.506;5.486;2024-03-22T11:31:09;10.30;79.80
78876;DHT22;68253;52.506;5.486;2024-03-22T11:33:35;10.30;79.70
78876;DHT22;68253;52.506;5.486;2024-03-22T11:36:02;10.30;79.70
78876;DHT22;68253;52.506;5.486;2024-03-22T11:38:31;10.30;79.70
78876;DHT22;68253;52.506;5.486;2024-03-22T11:40:58;10.30;79.70
78876;DHT22;68253;52.506;5.486;2024-03-22T11:43:27;10.30;79.80
78876;DHT22;68253;52.506;5.486;2024-03-22T11:45:54;10.30;79.90
78876;DHT22;68253;52.506;5.486;2024-03-22T11:48:21;10.40;79.90
78876;DHT22;68253;52.506;5.486;2024-03-22T11:50:49;10.40;79.90
78876;DHT22;68253;52.506;5.486;2024-03-22T11:53:16;10.40;79.90
78876;DHT22;68253;52.506;5.486;2024-03-22T11:55:43;10.50;79.80
78876;DHT22;68253;52.506;5.486;2024-03-22T11:58:12;10.50;79.70
78876;DHT22;68253;52.506;5.486;2024-03-22T12:00:38;10.50;79.60
78876;DHT22;68253;52.506;5.486;2024-03-22T12:03:05;10.60;79.40
78876;DHT22;68253;52.506;5.486;2024-03-22T12:05:33;10.60;79.30
78876;DHT22;68253;52.506;5.486;2024-03-22T12:07:59;10.60;79.30
78876;DHT22;68253;52.506;5.486;2024-03-22T12:10:26;10.60;79.40
78876;DHT22;68253;52.506;5.486;2024-03-22T12:12:52;10.60;79.30
78876;DHT22;68253;52.506;5.486;2024-03-22T12:15:19;10.70;79.30
78876;DHT22;68253;52.506;5.486;2024-03-22T12:17:46;10.70;79.10
78876;DHT22;68253;52.506;5.486;2024-03-22T12:20:12;10.70;79.00
78876;DHT22;68253;52.506;5.486;2024-03-22T12:22:41;10.70;79.00
78876;DHT22;68253;52.506;5.486;2024-03-22T12:25:07;10.80;79.00
78876;DHT22;68253;52.506;5.486;2024-03-22T12:27:35;10.90;78.70
78876;DHT22;68253;52.506;5.486;2024-03-22T12:30:01;10.90;78.50
78876;DHT22;68253;52.506;5.486;2024-03-22T12:32:27;11.00;78.40
78876;DHT22;68253;52.506;5.486;2024-03-22T12:34:55;11.00;78.40
78876;DHT22;68253;52.506;5.486;2024-03-22T12:37:21;11.00;78.30
78876;DHT22;68253;52.506;5.486;2024-03-22T12:39:47;11.10;77.80
78876;DHT22;68253;52.506;5.486;2024-03-22T12:42:13;11.00;77.80
78876;DHT22;68253;52.506;5.486;2024-03-22T12:44:39;11.10;77.80
78876;DHT22;68253;52.506;5.486;2024-03-22T12:47:05;11.00;77.70
78876;DHT22;68253;52.506;5.486;2024-03-22T12:49:31;11.10;77.60
78876;DHT22;68253;52.506;5.486;2024-03-22T12:51:57;11.00;77.70
78876;DHT22;68253;52.506;5.486;2024-03-22T12:54:24;11.10;77.70
78876;DHT22;68253;52.506;5.486;2024-03-22T12:56:52;11.10;77.60
78876;DHT22;68253;52.506;5.486;2024-03-22T12:59:18;11.00;77.50
78876;DHT22;68253;52.506;5.486;2024-03-22T13:01:44;11.00;77.40
78876;DHT22;68253;52.506;5.486;2024-03-22T13:04:10;11.00;77.40
78876;DHT22;68253;52.506;5.486;2024-03-22T13:06:37;11.00;77.50
78876;DHT22;68253;52.506;5.486;2024-03-22T13:09:03;11.10;77.30
78876;DHT22;68253;52.506;5.486;2024-03-22T13:11:31;11.10;77.00
78876;DHT22;68253;52.506;5.486;2024-03-22T13:13:57;11.10;76.90
78876;DHT22;68253;52.506;5.486;2024-03-22T13:16:25;11.10;77.00
78876;DHT22;68253;52.506;5.486;2024-03-22T13:18:51;11.10;76.80
78876;DHT22;68253;52.506;5.486;2024-03-22T13:21:17;11.10;76.60
78876;DHT22;68253;52.506;5.486;2024-03-22T13:23:44;11.20;76.60
78876;DHT22;68253;52.506;5.486;2024-03-22T13:26:10;11.20;76.50
78876;DHT22;68253;52.506;5.486;2024-03-22T13:28:36;11.20;76.60
78876;DHT22;68253;52.506;5.486;2024-03-22T13:31:02;11.30;76.60
78876;DHT22;68253;52.506;5.486;2024-03-22T13:33:33;11.40;76.40
78876;DHT22;68253;52.506;5.486;2024-03-22T13:36:00;11.40;76.00
78876;DHT22;68253;52.506;5.486;2024-03-22T13:38:27;11.30;75.90
78876;DHT22;68253;52.506;5.486;2024-03-22T13:40:55;11.30;76.00
78876;DHT22;68253;52.506;5.486;2024-03-22T13:43:31;11.30;75.70
78876;DHT22;68253;52.506;5.486;2024-03-22T13:46:00;11.30;75.30
78876;DHT22;68253;52.506;5.486;2024-03-22T13:48:27;11.40;75.40
78876;DHT22;68253;52.506;5.486;2024-03-22T13:50:54;11.40;75.20
78876;DHT22;68253;52.506;5.486;2024-03-22T13:53:21;11.40;74.70
78876;DHT22;68253;52.506;5.486;2024-03-22T13:55:51;11.40;74.80
78876;DHT22;68253;52.506;5.486;2024-03-22T13:58:18;11.40;74.60
78876;DHT22;68253;52.506;5.486;2024-03-22T14:00:44;11.40;74.60
78876;DHT22;68253;52.506;5.486;2024-03-22T14:03:11;11.40;74.10
78876;DHT22;68253;52.506;5.486;2024-03-22T14:05:37;11.40;74.00
78876;DHT22;68253;52.506;5.486;2024-03-22T14:08:03;11.40;74.10
78876;DHT22;68253;52.506;5.486;2024-03-22T14:10:30;11.40;74.10
78876;DHT22;68253;52.506;5.486;2024-03-22T14:12:59;11.40;74.00
78876;DHT22;68253;52.506;5.486;2024-03-22T14:15:25;11.40;73.80
78876;DHT22;68253;52.506;5.486;2024-03-22T14:17:53;11.40;73.90
78876;DHT22;68253;52.506;5.486;2024-03-22T14:20:19;11.40;73.70
78876;DHT22;68253;52.506;5.486;2024-03-22T14:22:45;11.40;73.70
78876;DHT22;68253;52.506;5.486;2024-03-22T14:25:12;11.40;73.80
78876;DHT22;68253;52.506;5.486;2024-03-22T14:27:39;11.50;73.90
78876;DHT22;68253;52.506;5.486;2024-03-22T14:30:05;11.50;73.40
78876;DHT22;68253;52.506;5.486;2024-03-22T14:32:36;11.50;73.30
78876;DHT22;68253;52.506;5.486;2024-03-22T14:35:02;11.50;73.40
78876;DHT22;68253;52.506;5.486;2024-03-22T14:37:28;11.50;73.50
78876;DHT22;68253;52.506;5.486;2024-03-22T14:39:54;11.50;73.50
78876;DHT22;68253;52.506;5.486;2024-03-22T14:42:20;11.50;73.50
78876;DHT22;68253;52.506;5.486;2024-03-22T14:44:47;11.50;73.40
78876;DHT22;68253;52.506;5.486;2024-03-22T14:47:13;11.50;73.30
78876;DHT22;68253;52.506;5.486;2024-03-22T14:49:39;11.40;73.20
78876;DHT22;68253;52.506;5.486;2024-03-22T14:52:08;11.40;72.90
78876;DHT22;68253;52.506;5.486;2024-03-22T14:54:34;11.30;73.00
78876;DHT22;68253;52.506;5.486;2024-03-22T14:57:00;11.30;73.00
78876;DHT22;68253;52.506;5.486;2024-03-22T14:59:29;11.20;72.90
78876;DHT22;68253;52.506;5.486;2024-03-22T15:01:55;11.10;72.80
78876;DHT22;68253;52.506;5.486;2024-03-22T15:04:22;11.10;72.50
78876;DHT22;68253;52.506;5.486;2024-03-22T15:06:48;11.00;72.60
78876;DHT22;68253;52.506;5.486;2024-03-22T15:09:17;10.90;72.70
78876;DHT22;68253;52.506;5.486;2024-03-22T15:11:47;10.90;72.50
78876;DHT22;68253;52.506;5.486;2024-03-22T15:14:13;10.90;72.30
78876;DHT22;68253;52.506;5.486;2024-03-22T15:16:40;10.90;72.00
78876;DHT22;68253;52.506;5.486;2024-03-22T15:19:08;10.80;72.00
78876;DHT22;68253;52.506;5.486;2024-03-22T15:21:38;10.80;72.10
78876;DHT22;68253;52.506;5.486;2024-03-22T15:24:04;10.80;72.00
78876;DHT22;68253;52.506;5.486;2024-03-22T15:26:31;10.80;71.90